Nearby METAR Reports

 

EGSS - Stansted Airport, United Kingdom
Distance from station: NW 15mi, 24km
Updated: 23/05/2019 01:50
Clear
Clear
 Wind from SW
Wind: SW 7 mph , 11 km/h
Temperature: 9°C
Wind Chill: 7°C
Dew Point: 5°C
Humidity: 76%
Barometer: 1018 hPa
Clouds: Clear
Visibility: 6 miles , 10 km
2019/05/23 00:50 EGSS 230050Z AUTO 22006KT 9999 NCD 09/05 Q1018
EGMC - Southend-On-Sea, United Kingdom
Distance from station: SE 15mi, 25km
Updated: 23/05/2019 00:50
Clear
Clear
 Wind from SW
Wind: SW 7 mph , 11 km/h
Temperature: 11°C
Dew Point: 5°C
Humidity: 67%
Barometer: 1018 hPa
Summary: Clear
Visibility: greater than 7 miles , 10 km
2019/05/22 23:50 EGMC 222350Z 23006KT CAVOK 11/05 Q1018
 
EGLC - London City Airp, United Kingdom
Distance from station: SW 24mi, 39km
Updated: 23/05/2019 01:50
Clear
Clear
 Wind from SW
Wind: SW 6 mph , 9 km/h
Temperature: 14°C
Dew Point: 6°C
Humidity: 59%
Barometer: 1018 hPa
Clouds: Clear
Visibility: 6 miles , 10 km
2019/05/23 00:50 EGLC 230050Z AUTO 23005KT 9999 NCD 14/06 Q1018
EGUW - Wattisham Raf, United Kingdom
Distance from station: NE 34mi, 54km
Updated: 23/05/2019 00:50
Mostly cloudy
Mostly cloudy
 Wind from SW
Wind: SW 7 mph , 11 km/h
Temperature: 11°C
Dew Point: 6°C
Humidity: 72%
Barometer: 1017 hPa
Clouds: Mostly cloudy
Visibility: 6 miles , 10 km
Cloud details: Mostly cloudy 4267 m
2019/05/22 23:50 EGUW 222350Z AUTO 22006KT 9999 BKN140/// 11/06 Q1017
 
EGGW - Luton Airport, United Kingdom
Distance from station: WNW 37mi, 59km
Updated: 23/05/2019 01:50
Clear
Clear
 Wind from SW
Wind: SW 6 mph , 9 km/h
Temperature: 10°C
Wind Chill: 9°C
Dew Point: 4°C
Humidity: 67%
Barometer: 1017 hPa
Clouds: Clear
Visibility: 6 miles , 10 km
2019/05/23 00:50 EGGW 230050Z AUTO 22005KT 9999 NCD 10/04 Q1017
EGWU - Northolt Raf, United Kingdom
Distance from station: WSW 40mi, 64km
Updated: 23/05/2019 00:50
Mostly cloudy
Mostly cloudy
 Wind from SSW
Wind: SSW 3 mph , 6 km/h
Temperature: 12°C
Dew Point: 4°C
Humidity: 58%
Barometer: 1018 hPa
Clouds: Mostly cloudy
Visibility: 6 miles , 10 km
Cloud details: Mostly cloudy 6706 m
2019/05/22 23:50 EGWU 222350Z AUTO 20003KT 9999 // BKN220/// 12/04 Q1018